createdAt,value
2023-01-27T00:02:28.593Z,83.84
2023-01-27T00:07:31.334Z,83.94
2023-01-27T00:12:52.944Z,83.50
2023-01-27T00:17:55.876Z,83.98
2023-01-27T00:23:16.049Z,83.54
2023-01-27T00:28:23.131Z,83.52
2023-01-27T00:33:28.583Z,83.79
2023-01-27T00:38:33.925Z,83.20
2023-01-27T00:43:38.104Z,82.81
2023-01-27T00:48:40.828Z,83.06
2023-01-27T00:53:43.571Z,82.73
2023-01-27T00:58:47.652Z,83.01
2023-01-27T01:03:50.456Z,83.55
2023-01-27T01:08:53.333Z,83.72
2023-01-27T01:13:57.526Z,83.29
2023-01-27T01:19:00.318Z,83.05
2023-01-27T01:24:03.073Z,83.16
2023-01-27T01:29:07.203Z,83.71
2023-01-27T01:34:09.929Z,83.77
2023-01-27T01:39:12.639Z,83.42
2023-01-27T01:44:25.005Z,83.89
2023-01-27T01:49:30.316Z,83.60
2023-01-27T01:54:35.668Z,83.27
2023-01-27T01:59:43.962Z,83.37
2023-01-27T02:04:49.422Z,83.97
2023-01-27T02:09:52.152Z,83.74
2023-01-27T02:14:56.363Z,84.18
2023-01-27T02:20:04.654Z,83.53
2023-01-27T02:25:13.283Z,83.68
2023-01-27T02:30:18.111Z,83.50
2023-01-27T02:35:24.916Z,83.67
2023-01-27T02:40:28.380Z,82.79
2023-01-27T02:45:32.918Z,83.85
2023-01-27T02:50:36.106Z,83.79
2023-01-27T02:55:39.098Z,83.44
2023-01-27T03:00:45.695Z,83.61
2023-01-27T03:05:51.472Z,83.14
2023-01-27T03:10:55.615Z,82.98
2023-01-27T03:16:18.487Z,83.40
2023-01-27T03:21:21.610Z,83.07
2023-01-27T03:26:25.309Z,82.90
2023-01-27T03:31:33.629Z,83.15
2023-01-27T03:36:56.431Z,83.75
2023-01-27T03:42:17.481Z,83.77
2023-01-27T03:47:22.864Z,83.74
2023-01-27T03:52:25.587Z,84.16
2023-01-27T03:57:28.321Z,83.83
2023-01-27T04:02:51.737Z,83.66
2023-01-27T04:07:54.562Z,83.40
2023-01-27T04:12:57.276Z,83.60
2023-01-27T04:18:01.344Z,83.83
2023-01-27T04:23:04.144Z,84.10
2023-01-27T04:28:06.895Z,84.12
2023-01-27T04:33:15.184Z,83.35
2023-01-27T04:38:17.919Z,83.80
2023-01-27T04:43:20.780Z,83.73
2023-01-27T04:48:24.874Z,83.82
2023-01-27T04:53:27.567Z,82.93
2023-01-27T04:58:30.483Z,82.92
2023-01-27T05:03:34.722Z,83.25
2023-01-27T05:08:37.442Z,83.55
2023-01-27T05:13:41.226Z,82.94
2023-01-27T05:18:48.380Z,83.56
2023-01-27T05:23:51.699Z,83.19
2023-01-27T05:28:55.628Z,82.95
2023-01-27T05:34:00.878Z,82.69
2023-01-27T05:39:03.684Z,82.92
2023-01-27T05:44:12.501Z,82.66
2023-01-27T05:49:16.585Z,82.85
2023-01-27T05:54:19.303Z,82.88
2023-01-27T05:59:22.017Z,83.09
2023-01-27T06:04:26.133Z,83.23
2023-01-27T06:09:28.793Z,82.42
2023-01-27T06:14:31.564Z,82.89
2023-01-27T06:19:35.659Z,82.70
2023-01-27T06:24:38.401Z,82.66
2023-01-27T06:29:41.250Z,83.01
2023-01-27T06:34:45.336Z,82.72
2023-01-27T06:39:48.053Z,83.46
2023-01-27T06:44:50.859Z,82.92
2023-01-27T06:49:55.062Z,83.05
2023-01-27T06:54:57.894Z,82.28
2023-01-27T07:00:00.722Z,82.72
2023-01-27T07:05:05.655Z,82.43
2023-01-27T07:10:09.616Z,82.84
2023-01-27T07:15:16.262Z,82.56
2023-01-27T07:20:20.591Z,82.89
2023-01-27T07:25:23.311Z,82.63
2023-01-27T07:30:26.308Z,82.73
2023-01-27T07:35:30.494Z,83.39
2023-01-27T07:40:33.366Z,83.26
2023-01-27T07:45:36.313Z,82.95
2023-01-27T07:50:42.593Z,82.70
2023-01-27T07:55:45.347Z,82.86
2023-01-27T08:00:48.073Z,83.32
2023-01-27T08:05:52.330Z,83.56
2023-01-27T08:10:55.141Z,83.58
2023-01-27T08:15:58.404Z,83.07
2023-01-27T08:21:03.510Z,82.75
2023-01-27T08:26:07.379Z,83.38
2023-01-27T08:31:12.523Z,83.57
2023-01-27T08:36:18.256Z,83.22
2023-01-27T08:41:23.131Z,83.85
2023-01-27T08:46:25.915Z,83.27
2023-01-27T08:51:30.040Z,83.16
2023-01-27T08:56:32.757Z,83.43
2023-01-27T09:01:35.499Z,83.06
2023-01-27T09:06:39.634Z,84.02
2023-01-27T09:11:44.285Z,83.73
2023-01-27T09:16:47.050Z,83.92
2023-01-27T09:21:51.114Z,84.01
2023-01-27T09:26:54.383Z,84.34
2023-01-27T09:31:57.342Z,84.25
2023-01-27T09:37:04.145Z,83.95
2023-01-27T09:42:20.501Z,84.20
2023-01-27T09:47:37.917Z,83.90
2023-01-27T09:52:57.735Z,84.58
2023-01-27T09:58:07.407Z,83.85
2023-01-27T10:03:18.495Z,84.48
2023-01-27T10:08:40.249Z,84.26
2023-01-27T10:13:52.033Z,84.61
2023-01-27T10:19:08.550Z,85.02
2023-01-27T10:24:19.401Z,84.72
2023-01-27T10:29:25.544Z,85.09
2023-01-27T10:34:30.061Z,84.41
2023-01-27T10:39:43.989Z,84.54
2023-01-27T10:45:07.779Z,84.78
2023-01-27T10:50:14.835Z,84.47
2023-01-27T10:55:22.004Z,84.31
2023-01-27T11:00:57.801Z,84.87
2023-01-27T11:05:55.739Z,84.98
2023-01-27T11:11:21.547Z,84.58
2023-01-27T11:16:25.300Z,85.33
2023-01-27T11:21:31.403Z,85.29
2023-01-27T11:26:40.789Z,84.65
2023-01-27T11:31:51.733Z,84.57
2023-01-27T11:36:54.725Z,84.78
2023-01-27T11:41:59.512Z,84.61
2023-01-27T11:47:03.238Z,84.36
2023-01-27T11:52:11.762Z,84.34
2023-01-27T11:57:21.436Z,84.72
2023-01-27T12:02:29.168Z,84.63
2023-01-27T12:07:40.187Z,84.81
2023-01-27T12:12:45.554Z,84.77
2023-01-27T12:17:49.948Z,84.35
2023-01-27T12:22:54.421Z,84.62
2023-01-27T12:28:01.310Z,84.00
2023-01-27T12:33:12.750Z,83.83
2023-01-27T12:38:19.320Z,83.38
2023-01-27T12:43:24.323Z,83.25
2023-01-27T12:48:27.004Z,84.38
2023-01-27T12:53:29.805Z,84.57
2023-01-27T12:58:39.441Z,85.07
2023-01-27T13:03:42.931Z,85.28
2023-01-27T13:08:46.377Z,85.24
2023-01-27T13:13:52.026Z,85.24
2023-01-27T13:18:56.240Z,85.23
2023-01-27T13:23:59.653Z,85.15
2023-01-27T13:29:12.561Z,85.12
2023-01-27T13:34:23.832Z,85.77
2023-01-27T13:39:41.332Z,85.56
2023-01-27T13:44:52.030Z,86.04
2023-01-27T13:49:58.559Z,86.40
2023-01-27T13:55:01.290Z,86.65
2023-01-27T14:00:12.217Z,86.97
2023-01-27T14:05:28.577Z,86.89
2023-01-27T14:10:36.187Z,86.50
2023-01-27T14:15:45.334Z,86.42
2023-01-27T14:20:58.389Z,87.12
2023-01-27T14:26:11.997Z,86.55
2023-01-27T14:31:19.537Z,87.16
2023-01-27T14:36:24.926Z,86.79
2023-01-27T14:41:33.420Z,87.03
2023-01-27T14:46:57.804Z,86.91
2023-01-27T14:52:05.363Z,86.90
2023-01-27T14:57:18.273Z,87.47
2023-01-27T15:02:37.860Z,87.43
2023-01-27T15:07:47.895Z,87.28
2023-01-27T15:13:29.297Z,87.76
2023-01-27T15:18:54.154Z,87.90
2023-01-27T15:24:12.854Z,87.51
2023-01-27T15:29:16.560Z,87.91
2023-01-27T15:34:24.250Z,88.26
2023-01-27T15:39:40.480Z,87.69
2023-01-27T15:45:00.440Z,87.99
2023-01-27T15:50:08.324Z,88.17
2023-01-27T15:55:25.014Z,88.35
2023-01-27T16:00:30.971Z,88.56
2023-01-27T16:05:38.805Z,88.95
2023-01-27T16:10:41.976Z,88.64
2023-01-27T16:15:45.299Z,88.77
2023-01-27T16:20:53.307Z,88.75
2023-01-27T16:26:04.394Z,88.75
2023-01-27T16:31:12.332Z,88.87
2023-01-27T16:36:21.362Z,88.91
2023-01-27T16:41:27.672Z,88.58
2023-01-27T16:46:34.261Z,89.39
2023-01-27T16:51:38.665Z,89.17
2023-01-27T16:56:41.669Z,89.17
2023-01-27T17:01:48.839Z,89.32
2023-01-27T17:06:54.661Z,88.73
2023-01-27T17:11:57.563Z,89.06
2023-01-27T17:17:02.885Z,89.58
2023-01-27T17:22:10.302Z,89.47
2023-01-27T17:27:23.476Z,89.30
2023-01-27T17:32:27.993Z,89.19
2023-01-27T17:37:32.905Z,89.50
2023-01-27T17:42:35.758Z,89.29
2023-01-27T17:47:44.449Z,89.64
2023-01-27T17:52:52.389Z,89.74
2023-01-27T17:58:01.336Z,89.45
2023-01-27T18:03:05.658Z,89.79
2023-01-27T18:08:11.972Z,89.62
2023-01-27T18:13:35.767Z,90.11
2023-01-27T18:18:38.437Z,90.81
2023-01-27T18:23:46.676Z,90.22
2023-01-27T18:28:53.100Z,90.39
2023-01-27T18:34:00.992Z,90.10
2023-01-27T18:39:26.379Z,91.16
2023-01-27T18:44:35.224Z,90.89
2023-01-27T18:49:38.326Z,90.77
2023-01-27T18:54:42.735Z,91.42
2023-01-27T18:59:45.515Z,91.80
2023-01-27T19:04:48.426Z,91.44
2023-01-27T19:09:52.675Z,91.28
2023-01-27T19:14:55.584Z,91.57
2023-01-27T19:19:58.368Z,90.94
2023-01-27T19:25:02.416Z,90.56
2023-01-27T19:30:21.675Z,90.65
2023-01-27T19:35:25.569Z,91.07
2023-01-27T19:40:30.592Z,91.04
2023-01-27T19:45:33.571Z,91.36
2023-01-27T19:50:36.501Z,91.83
2023-01-27T19:55:40.855Z,91.86
2023-01-27T20:00:43.559Z,91.43
2023-01-27T20:05:46.661Z,91.53
2023-01-27T20:10:51.983Z,90.81
2023-01-27T20:15:55.048Z,90.61
2023-01-27T20:20:58.626Z,90.66
2023-01-27T20:26:03.407Z,90.58
2023-01-27T20:31:06.461Z,90.72
2023-01-27T20:36:11.964Z,90.48
2023-01-27T20:41:18.333Z,90.91
2023-01-27T20:46:21.544Z,90.88
2023-01-27T20:51:24.299Z,91.19
2023-01-27T20:56:28.551Z,90.59
2023-01-27T21:01:33.016Z,90.97
2023-01-27T21:06:36.174Z,90.68
2023-01-27T21:11:40.254Z,90.90
2023-01-27T21:16:43.155Z,91.52
2023-01-27T21:21:46.586Z,91.08
2023-01-27T21:26:52.388Z,91.33
2023-01-27T21:31:55.139Z,91.86
2023-01-27T21:36:57.853Z,91.29
2023-01-27T21:42:19.440Z,92.02
2023-01-27T21:47:23.417Z,91.55
2023-01-27T21:52:29.848Z,91.80
2023-01-27T21:57:34.009Z,91.45
2023-01-27T22:02:36.959Z,91.74
2023-01-27T22:07:40.518Z,91.67
2023-01-27T22:12:44.906Z,91.87
2023-01-27T22:17:47.631Z,91.60
2023-01-27T22:22:51.120Z,91.87
2023-01-27T22:27:56.112Z,91.64
2023-01-27T22:32:58.888Z,91.79
2023-01-27T22:38:02.421Z,92.32
2023-01-27T22:43:09.743Z,92.11
2023-01-27T22:48:12.460Z,92.03
2023-01-27T22:53:15.216Z,92.06
2023-01-27T22:58:19.271Z,92.50
2023-01-27T23:03:22.271Z,92.17
2023-01-27T23:08:25.371Z,92.14
2023-01-27T23:13:35.747Z,92.55
2023-01-27T23:18:38.510Z,91.99
2023-01-27T23:23:41.282Z,92.59
2023-01-27T23:28:45.407Z,92.30
2023-01-27T23:33:49.178Z,92.39
2023-01-27T23:38:51.890Z,92.47
2023-01-27T23:43:56.514Z,92.24
2023-01-27T23:48:59.221Z,91.41
2023-01-27T23:54:02.083Z,91.70
2023-01-27T23:59:06.187Z,92.10
